Time,TemperatureF,DewpointF,PressureIn,WindDirection,WindDirectionDegrees,WindSpeedMPH,WindSpeedGustMPH,Humidity,HourlyPrecipIn,Conditions,Clouds,dailyrainin,SolarRadiationWatts/m^2,SoftwareType,DateUTC
2013-08-04 00:02:00,53.0,47.0,-100.00,NW,315,4.0,5.0,80,0.00,,,0.00,1.000000,,2013-08-04 05:02:00,
2013-08-04 00:12:00,53.0,47.0,-100.00,NW,315,4.0,5.0,80,0.00,,,0.00,1.000000,,2013-08-04 05:12:00,
2013-08-04 08:52:00,60.0,50.0,-100.00,WNW,297,3.0,5.0,70,-99.99,,,0.00,259.000000,,2013-08-04 13:52:00,
2013-08-04 09:02:00,60.0,50.0,-100.00,WNW,297,3.0,5.0,70,-99.99,,,0.00,259.000000,,2013-08-04 14:02:00,
2013-08-04 09:12:00,60.0,50.0,-100.00,WNW,297,3.0,5.0,70,-99.99,,,0.00,259.000000,,2013-08-04 14:12:00,
2013-08-04 09:32:00,65.0,52.0,-100.00,NW,306,3.0,6.0,63,0.00,,,0.00,454.000000,,2013-08-04 14:32:00,
2013-08-04 09:43:00,65.0,52.0,-100.00,NW,306,3.0,6.0,63,0.00,,,0.00,454.000000,,2013-08-04 14:43:00,
2013-08-04 09:53:00,65.0,52.0,-100.00,NW,306,3.0,6.0,63,0.00,,,0.00,454.000000,,2013-08-04 14:53:00,
2013-08-04 10:02:00,65.0,52.0,-100.00,NW,306,3.0,6.0,63,0.00,,,0.00,454.000000,,2013-08-04 15:02:00,
2013-08-04 10:12:00,65.0,52.0,-100.00,NW,306,3.0,6.0,63,0.00,,,0.00,454.000000,,2013-08-04 15:12:00,
2013-08-04 10:32:00,66.0,49.0,-100.00,NW,308,5.0,8.0,54,0.00,,,0.00,559.000000,,2013-08-04 15:32:00,
2013-08-04 10:43:00,66.0,49.0,-100.00,NW,308,5.0,8.0,54,0.00,,,0.00,559.000000,,2013-08-04 15:43:00,
2013-08-04 10:53:00,66.0,49.0,-100.00,NW,308,5.0,8.0,54,0.00,,,0.00,559.000000,,2013-08-04 15:53:00,
2013-08-04 11:02:00,66.0,49.0,-100.00,NW,308,5.0,8.0,54,0.00,,,0.00,559.000000,,2013-08-04 16:02:00,
2013-08-04 11:12:00,66.0,49.0,-100.00,NW,308,5.0,8.0,54,0.00,,,0.00,559.000000,,2013-08-04 16:12:00,
2013-08-04 11:33:00,66.0,46.0,-100.00,WNW,283,4.0,9.0,49,0.00,,,0.00,635.000000,,2013-08-04 16:33:00,
2013-08-04 11:43:00,66.0,46.0,-100.00,WNW,283,4.0,9.0,49,0.00,,,0.00,635.000000,,2013-08-04 16:43:00,
2013-08-04 11:53:00,66.0,46.0,-100.00,WNW,283,4.0,9.0,49,0.00,,,0.00,635.000000,,2013-08-04 16:53:00,
2013-08-04 12:02:00,66.0,46.0,-100.00,WNW,283,4.0,9.0,49,0.00,,,0.00,635.000000,,2013-08-04 17:02:00,
2013-08-04 12:12:00,66.0,46.0,-100.00,WNW,283,4.0,9.0,49,0.00,,,0.00,635.000000,,2013-08-04 17:12:00,
2013-08-04 12:32:00,69.0,44.0,-100.00,West,275,3.0,7.0,40,0.00,,,0.00,619.000000,,2013-08-04 17:32:00,
2013-08-04 12:43:00,69.0,44.0,-100.00,West,275,3.0,7.0,40,0.00,,,0.00,619.000000,,2013-08-04 17:43:00,
2013-08-04 12:53:00,69.0,44.0,-100.00,West,275,3.0,7.0,40,0.00,,,0.00,619.000000,,2013-08-04 17:53:00,
2013-08-04 13:02:00,69.0,44.0,-100.00,West,275,3.0,7.0,40,0.00,,,0.00,619.000000,,2013-08-04 18:02:00,
2013-08-04 13:12:00,69.0,44.0,-100.00,West,275,3.0,7.0,40,0.00,,,0.00,619.000000,,2013-08-04 18:12:00,
2013-08-04 13:33:00,68.0,47.0,-100.00,WNW,301,3.0,6.0,47,0.00,,,0.00,471.000000,,2013-08-04 18:33:00,
2013-08-04 13:43:00,68.0,47.0,-100.00,WNW,301,3.0,6.0,47,0.00,,,0.00,471.000000,,2013-08-04 18:43:00,
2013-08-04 13:52:00,68.0,47.0,-100.00,WNW,301,3.0,6.0,47,0.00,,,0.00,471.000000,,2013-08-04 18:52:00,
2013-08-04 14:02:00,68.0,47.0,-100.00,WNW,301,3.0,6.0,47,0.00,,,0.00,471.000000,,2013-08-04 19:02:00,
2013-08-04 14:12:00,68.0,47.0,-100.00,WNW,301,3.0,6.0,47,0.00,,,0.00,471.000000,,2013-08-04 19:12:00,
2013-08-04 14:33:00,75.0,47.0,-100.00,West,276,4.0,8.0,37,0.00,,,0.00,706.000000,,2013-08-04 19:33:00,
2013-08-04 14:43:00,75.0,47.0,-100.00,West,276,4.0,8.0,37,0.00,,,0.00,706.000000,,2013-08-04 19:43:00,
2013-08-04 14:53:00,75.0,47.0,-100.00,West,276,4.0,8.0,37,0.00,,,0.00,706.000000,,2013-08-04 19:53:00,
2013-08-04 15:02:00,75.0,47.0,-100.00,West,276,4.0,8.0,37,0.00,,,0.00,706.000000,,2013-08-04 20:02:00,
2013-08-04 15:12:00,75.0,47.0,-100.00,West,276,4.0,8.0,37,0.00,,,0.00,706.000000,,2013-08-04 20:12:00,
2013-08-04 15:33:00,72.0,46.0,-100.00,NW,312,5.0,9.0,40,0.00,,,-99.99,590.000000,,2013-08-04 20:33:00,
2013-08-04 15:43:00,72.0,46.0,-100.00,NW,312,5.0,9.0,40,0.00,,,-99.99,590.000000,,2013-08-04 20:43:00,
2013-08-04 15:53:00,72.0,46.0,-100.00,NW,312,5.0,9.0,40,0.00,,,-99.99,590.000000,,2013-08-04 20:53:00,
2013-08-04 16:02:00,72.0,46.0,-100.00,NW,312,5.0,9.0,40,0.00,,,-99.99,590.000000,,2013-08-04 21:02:00,
2013-08-04 16:12:00,72.0,46.0,-100.00,NW,312,5.0,9.0,40,0.00,,,-99.99,590.000000,,2013-08-04 21:12:00,
2013-08-04 16:43:00,72.0,46.0,-100.00,WNW,299,6.0,10.0,40,0.00,,,0.00,778.000000,,2013-08-04 21:43:00,
2013-08-04 16:53:00,72.0,46.0,-100.00,WNW,299,6.0,10.0,40,0.00,,,0.00,778.000000,,2013-08-04 21:53:00,
2013-08-04 17:02:00,72.0,46.0,-100.00,WNW,299,6.0,10.0,40,0.00,,,0.00,778.000000,,2013-08-04 22:02:00,
2013-08-04 17:12:00,72.0,46.0,-100.00,WNW,299,6.0,10.0,40,0.00,,,0.00,778.000000,,2013-08-04 22:12:00,
2013-08-04 17:32:00,71.0,45.0,-100.00,WNW,287,4.0,9.0,39,0.00,,,0.00,600.000000,,2013-08-04 22:32:00,
2013-08-04 17:43:00,71.0,45.0,-100.00,WNW,287,4.0,9.0,39,0.00,,,0.00,600.000000,,2013-08-04 22:43:00,
2013-08-04 17:53:00,71.0,45.0,-100.00,WNW,287,4.0,9.0,39,0.00,,,0.00,600.000000,,2013-08-04 22:53:00,
2013-08-04 18:02:00,71.0,45.0,-100.00,WNW,287,4.0,9.0,39,0.00,,,0.00,600.000000,,2013-08-04 23:02:00,
2013-08-04 18:12:00,71.0,45.0,-100.00,WNW,287,4.0,9.0,39,0.00,,,0.00,600.000000,,2013-08-04 23:12:00,
2013-08-04 18:32:00,72.0,46.0,-100.00,WSW,257,4.0,8.0,39,0.00,,,0.00,447.000000,,2013-08-04 23:32:00,
2013-08-04 18:43:00,72.0,46.0,-100.00,WSW,257,4.0,8.0,39,0.00,,,0.00,447.000000,,2013-08-04 23:43:00,
2013-08-04 18:53:00,72.0,46.0,-100.00,WSW,257,4.0,8.0,39,0.00,,,0.00,447.000000,,2013-08-04 23:53:00,
2013-08-04 19:02:00,72.0,46.0,-100.00,WSW,257,4.0,8.0,39,0.00,,,0.00,447.000000,,2013-08-05 00:02:00,
2013-08-04 19:12:00,72.0,46.0,-100.00,WSW,257,4.0,8.0,39,0.00,,,0.00,447.000000,,2013-08-05 00:12:00,
2013-08-04 19:42:00,70.0,47.0,-100.00,South,182,2.0,7.0,44,0.00,,,0.00,246.000000,,2013-08-05 00:42:00,
2013-08-04 19:53:00,70.0,47.0,-100.00,South,182,2.0,7.0,44,0.00,,,0.00,246.000000,,2013-08-05 00:53:00,
2013-08-04 20:02:00,70.0,47.0,-100.00,South,182,2.0,7.0,44,0.00,,,0.00,246.000000,,2013-08-05 01:02:00,
2013-08-04 20:12:00,70.0,47.0,-100.00,South,182,2.0,7.0,44,0.00,,,0.00,246.000000,,2013-08-05 01:12:00,
2013-08-04 20:33:00,67.0,47.0,-100.00,SSW,194,1.0,4.0,48,0.00,,,0.00,81.000000,,2013-08-05 01:33:00,
2013-08-04 20:43:00,67.0,47.0,-100.00,SSW,194,1.0,4.0,48,0.00,,,0.00,81.000000,,2013-08-05 01:43:00,
2013-08-04 20:52:00,67.0,47.0,-100.00,SSW,194,1.0,4.0,48,0.00,,,0.00,81.000000,,2013-08-05 01:52:00,
2013-08-04 21:02:00,67.0,47.0,-100.00,SSW,194,1.0,4.0,48,0.00,,,0.00,81.000000,,2013-08-05 02:02:00,
2013-08-04 21:12:00,67.0,47.0,-100.00,SSW,194,1.0,4.0,48,0.00,,,0.00,81.000000,,2013-08-05 02:12:00,
2013-08-04 21:33:00,60.0,48.0,-100.00,South,170,3.0,5.0,64,-99.99,,,-99.99,5.000000,,2013-08-05 02:33:00,
2013-08-04 21:43:00,60.0,48.0,-100.00,South,170,3.0,5.0,64,-99.99,,,-99.99,5.000000,,2013-08-05 02:43:00,
2013-08-04 21:53:00,60.0,48.0,-100.00,South,170,3.0,5.0,64,-99.99,,,-99.99,5.000000,,2013-08-05 02:53:00,
2013-08-04 22:02:00,60.0,48.0,-100.00,South,170,3.0,5.0,64,-99.99,,,-99.99,5.000000,,2013-08-05 03:02:00,
2013-08-04 22:12:00,60.0,48.0,-100.00,South,170,3.0,5.0,64,-99.99,,,-99.99,5.000000,,2013-08-05 03:12:00,
2013-08-04 22:32:00,58.0,49.0,-100.00,South,172,3.0,6.0,73,0.00,,,0.00,0.000000,,2013-08-05 03:32:00,
2013-08-04 22:42:00,58.0,49.0,-100.00,South,172,3.0,6.0,73,0.00,,,0.00,0.000000,,2013-08-05 03:42:00,
2013-08-04 22:53:00,58.0,49.0,-100.00,South,172,3.0,6.0,73,0.00,,,0.00,0.000000,,2013-08-05 03:53:00,
2013-08-04 23:02:00,58.0,49.0,-100.00,South,172,3.0,6.0,73,0.00,,,0.00,0.000000,,2013-08-05 04:02:00,
2013-08-04 23:12:00,58.0,49.0,-100.00,South,172,3.0,6.0,73,0.00,,,0.00,0.000000,,2013-08-05 04:12:00,
2013-08-04 23:32:00,58.0,49.0,-100.00,South,182,4.0,7.0,73,0.00,,,0.00,0.000000,,2013-08-05 04:32:00,
2013-08-04 23:43:00,58.0,49.0,-100.00,South,182,4.0,7.0,73,0.00,,,0.00,0.000000,,2013-08-05 04:43:00,
2013-08-04 23:52:00,58.0,49.0,-100.00,South,182,4.0,7.0,73,0.00,,,0.00,0.000000,,2013-08-05 04:52:00,